Fallon Naval Air Station /Van Voorhis Field
KNFL : now visible

Airfield :











YOU CAN JOIN US ON...

 
LOGIN :

Register | Disclaimer

   EN    FR    IT 

 









Legend :    VFR   Marginal VFR   IFR   Intensive IFR   Very Intensive IFR
Visi :
Ceiling :
>= 8 km
>= 3000ft
5 to 8 km
1000 to 3000 ft
1500m to 5 km
500 to 1000 ft
800 to 1500m
200 to 500 ft
< 800m
< 200 ft
Symbols :   Thunderstorms  Fog  Heavy snow  Heavy precipitations  Wind > 20 kt






- Airport Elevation : 3934 ft


KNFL - Fallon Naval Air Station /Van Voorhis Field

CURRENT METAR :
  • 081556Z 17004KT 10SM SCT120 SCT160 BKN220 06/M04 A2994 RMK AO2 SLP112 ACSL DSNT SW-W T00611044

EXPIRED METARs :
  • 081456Z 00000KT 10SM BKN120 BKN170 BKN220 02/M06 A2994 RMK AO2 SLP110 T00171061 51010
  • 081436Z 00000KT 10SM BKN120 BKN170 BKN220 M01/M07 A2993 RMK AO2 T10061067
  • 081356Z AUTO 11003KT 10SM CLR M01/M08 A2992 RMK AO2 SLP106 T10061078

TAF COR TAF KNFL
Valid from the 08 at 15:00 until the 09 at 15:00 UTC


0815/0915 18006KT 9999 SCT120 BKN220 QNH2990INS
FM081800 21015G25KT 9999 SCT120 BKN220 520009 540909 QNH2992INS
FM082100 25022G35KT 9999 FEW070 SCT120 BKN220 520009 540909 QNH2994INS
TEMPO 0822/0901 26028G40KT
FM090300 28015G25KT 9999 SCT070 SCT120 SCT220 520009 540909 QNH2996INS
FM090600 28008KT 9999 FEW120 SCT200 500000 QNH3000INS T14/0823Z TM04/0914Z COR 1545 FS30003
KZOA FIR / North America



MET'MAP, your aeronautical weather chart ! - Copyright ORBIFLY December 2007 - Disclaimer

ORBIFLY MET'MAP TEAM :

Programming & Development : Alexandra Zaïnal
Concept & original design : Baudouin d'Aumeries
Assistance for programming : Marc-Olivier Méhu
Technical & hardware support : Manuel Goepfert

Contact : metmap@orbifly.com




SOURCES & CREDITS :

   NOAA       Earth
Advisory